createdAt,value
2022-10-08T00:01:43.032Z,99433.00
2022-10-08T00:04:10.988Z,99434.00
2022-10-08T00:06:44.992Z,99428.00
2022-10-08T00:09:11.887Z,99431.00
2022-10-08T00:11:39.786Z,99439.00
2022-10-08T00:14:14.002Z,99440.00
2022-10-08T00:16:41.593Z,99418.00
2022-10-08T00:19:19.002Z,99414.00
2022-10-08T00:21:52.993Z,99424.00
2022-10-08T00:24:20.107Z,99419.00
2022-10-08T00:26:54.075Z,99418.00
2022-10-08T00:29:22.335Z,99402.00
2022-10-08T00:31:49.955Z,99431.00
2022-10-08T00:34:26.982Z,99436.00
2022-10-08T00:36:55.001Z,99404.00
2022-10-08T00:39:29.989Z,99414.00
2022-10-08T00:41:56.924Z,99407.00
2022-10-08T00:45:08.017Z,99425.00
2022-10-08T00:47:53.970Z,99427.00
2022-10-08T00:50:26.373Z,99428.00
2022-10-08T00:53:04.977Z,99429.00
2022-10-08T00:55:31.954Z,99400.00
2022-10-08T00:58:09.032Z,99414.00
2022-10-08T01:00:35.972Z,99417.00
2022-10-08T01:03:09.002Z,99394.00
2022-10-08T01:06:01.248Z,99423.00
2022-10-08T01:08:41.988Z,99408.00
2022-10-08T01:11:43.997Z,99401.00
2022-10-08T01:15:01.987Z,99398.00
2022-10-08T01:17:48.899Z,99399.00
2022-10-08T01:20:21.979Z,99399.00
2022-10-08T01:23:18.070Z,99397.00
2022-10-08T01:26:01.031Z,99397.00
2022-10-08T01:28:39.526Z,99362.00
2022-10-08T01:31:23.090Z,99368.00
2022-10-08T01:34:09.740Z,99385.00
2022-10-08T01:36:52.047Z,99359.00
2022-10-08T01:39:21.271Z,99362.00
2022-10-08T01:42:04.024Z,99367.00
2022-10-08T01:44:43.342Z,99369.00
2022-10-08T01:47:20.024Z,99338.00
2022-10-08T01:49:51.768Z,99359.00
2022-10-08T01:52:30.006Z,99359.00
2022-10-08T01:55:07.030Z,99360.00
2022-10-08T01:57:33.937Z,99359.00
2022-10-08T02:00:14.063Z,99356.00
2022-10-08T02:02:48.033Z,99353.00
2022-10-08T02:05:22.082Z,99360.00
2022-10-08T02:07:55.022Z,99355.00
2022-10-08T02:10:23.872Z,99342.00
2022-10-08T02:12:57.047Z,99338.00
2022-10-08T02:15:52.151Z,99367.00
2022-10-08T02:18:30.087Z,99359.00
2022-10-08T02:21:03.801Z,99330.00
2022-10-08T02:23:54.077Z,99340.00
2022-10-08T02:26:27.061Z,99322.00
2022-10-08T02:29:06.055Z,99353.00
2022-10-08T02:31:38.604Z,99361.00
2022-10-08T02:34:33.056Z,99360.00
2022-10-08T02:37:22.388Z,99349.00
2022-10-08T02:40:06.051Z,99346.00
2022-10-08T02:42:32.869Z,99345.00
2022-10-08T02:45:20.107Z,99337.00
2022-10-08T02:47:54.059Z,99332.00
2022-10-08T02:50:29.054Z,99352.00
2022-10-08T02:52:55.989Z,99351.00
2022-10-08T02:55:43.069Z,99348.00
2022-10-08T02:58:10.757Z,99350.00
2022-10-08T03:00:51.168Z,99352.00
2022-10-08T03:03:32.861Z,99335.00
2022-10-08T03:06:08.145Z,99347.00
2022-10-08T03:08:36.686Z,99347.00
2022-10-08T03:11:04.257Z,99343.00
2022-10-08T03:13:38.164Z,99340.00
2022-10-08T03:16:07.367Z,99338.00
2022-10-08T03:18:41.105Z,99352.00
2022-10-08T03:21:11.802Z,99331.00
2022-10-08T03:23:45.077Z,99326.00
2022-10-08T03:26:12.030Z,99356.00
2022-10-08T03:28:39.053Z,99326.00
2022-10-08T03:31:13.172Z,99322.00
2022-10-08T03:33:47.117Z,99323.00
2022-10-08T03:36:14.015Z,99326.00
2022-10-08T03:38:47.105Z,99331.00
2022-10-08T03:41:14.224Z,99343.00
2022-10-08T03:43:48.114Z,99339.00
2022-10-08T03:46:15.483Z,99324.00
2022-10-08T03:48:49.138Z,99323.00
2022-10-08T03:51:23.085Z,99323.00
2022-10-08T03:53:50.010Z,99315.00
2022-10-08T03:56:29.119Z,99307.00
2022-10-08T03:59:06.121Z,99329.00
2022-10-08T04:01:33.108Z,99329.00
2022-10-08T04:04:07.132Z,99305.00
2022-10-08T04:06:34.315Z,99313.00
2022-10-08T04:09:08.162Z,99306.00
2022-10-08T04:11:35.084Z,99289.00
2022-10-08T04:14:01.979Z,99312.00
2022-10-08T04:16:35.126Z,99289.00
2022-10-08T04:19:08.135Z,99311.00
2022-10-08T04:21:41.145Z,99316.00
2022-10-08T04:24:09.282Z,99297.00
2022-10-08T04:26:43.125Z,99322.00
2022-10-08T04:29:10.008Z,99326.00
2022-10-08T04:31:43.138Z,99326.00
2022-10-08T04:34:18.092Z,99290.00
2022-10-08T04:36:44.987Z,99328.00
2022-10-08T04:39:18.165Z,99304.00
2022-10-08T04:41:45.057Z,99321.00
2022-10-08T04:44:19.110Z,99340.00
2022-10-08T04:46:46.008Z,99324.00
2022-10-08T04:49:19.128Z,99322.00
2022-10-08T04:51:46.043Z,99297.00
2022-10-08T04:54:19.195Z,99294.00
2022-10-08T04:56:46.063Z,99308.00
2022-10-08T04:59:19.149Z,99326.00
2022-10-08T05:01:46.092Z,99318.00
2022-10-08T05:04:19.139Z,99308.00
2022-10-08T05:06:52.109Z,99330.00
2022-10-08T05:09:19.065Z,99321.00
2022-10-08T05:11:52.159Z,99312.00
2022-10-08T05:14:19.051Z,99296.00
2022-10-08T05:16:52.264Z,99320.00
2022-10-08T05:19:19.242Z,99305.00
2022-10-08T05:21:46.474Z,99325.00
2022-10-08T05:24:20.163Z,99310.00
2022-10-08T05:26:58.449Z,99327.00
2022-10-08T05:29:25.987Z,99328.00
2022-10-08T05:31:59.244Z,99314.00
2022-10-08T05:34:26.270Z,99307.00
2022-10-08T05:37:00.213Z,99324.00
2022-10-08T05:39:27.126Z,99304.00
2022-10-08T05:41:54.084Z,99314.00
2022-10-08T05:44:27.195Z,99308.00
2022-10-08T05:46:54.437Z,99320.00
2022-10-08T05:49:29.548Z,99296.00
2022-10-08T05:51:56.537Z,99321.00
2022-10-08T05:54:30.169Z,99333.00
2022-10-08T05:56:57.060Z,99322.00
2022-10-08T05:59:31.187Z,99339.00
2022-10-08T06:01:58.160Z,99314.00
2022-10-08T06:04:31.266Z,99311.00
2022-10-08T06:06:58.170Z,99333.00
2022-10-08T06:09:31.282Z,99333.00
2022-10-08T06:11:58.320Z,99312.00
2022-10-08T06:14:25.218Z,99323.00
2022-10-08T06:16:58.186Z,99310.00
2022-10-08T06:19:25.098Z,99326.00
2022-10-08T06:21:58.219Z,99311.00
2022-10-08T06:24:25.139Z,99319.00
2022-10-08T06:26:58.147Z,99323.00
2022-10-08T06:29:25.085Z,99326.00
2022-10-08T06:31:58.178Z,99314.00
2022-10-08T06:34:25.133Z,99319.00
2022-10-08T06:36:58.245Z,99326.00
2022-10-08T06:39:25.175Z,99313.00
2022-10-08T06:41:52.074Z,99329.00
2022-10-08T06:44:25.201Z,99340.00
2022-10-08T06:46:52.263Z,99336.00
2022-10-08T06:49:26.217Z,99327.00
2022-10-08T06:51:53.121Z,99318.00
2022-10-08T06:54:26.199Z,99328.00
2022-10-08T06:56:59.229Z,99336.00
2022-10-08T06:59:26.114Z,99336.00
2022-10-08T07:01:53.042Z,99340.00
2022-10-08T07:04:26.622Z,99329.00
2022-10-08T07:06:53.650Z,99344.00
2022-10-08T07:09:27.216Z,99339.00
2022-10-08T07:12:00.202Z,99344.00
2022-10-08T07:14:27.074Z,99341.00
2022-10-08T07:17:00.234Z,99344.00
2022-10-08T07:19:27.102Z,99333.00
2022-10-08T07:22:01.446Z,99331.00
2022-10-08T07:24:35.208Z,99325.00
2022-10-08T07:27:02.051Z,99333.00
2022-10-08T07:29:28.925Z,99336.00
2022-10-08T07:32:02.238Z,99331.00
2022-10-08T07:34:35.190Z,99338.00
2022-10-08T07:37:08.210Z,99344.00
2022-10-08T07:39:35.050Z,99335.00
2022-10-08T07:42:08.237Z,99338.00
2022-10-08T07:44:41.197Z,99331.00
2022-10-08T07:47:14.229Z,99339.00
2022-10-08T07:49:47.876Z,99336.00
2022-10-08T07:52:21.267Z,99340.00
2022-10-08T07:54:51.444Z,99344.00
2022-10-08T07:57:25.256Z,99346.00
2022-10-08T07:59:52.132Z,99339.00
2022-10-08T08:02:25.322Z,99348.00
2022-10-08T08:04:52.254Z,99355.00
2022-10-08T08:07:25.254Z,99360.00
2022-10-08T08:09:52.170Z,99358.00
2022-10-08T08:12:25.322Z,99354.00
2022-10-08T08:14:57.198Z,99351.00
2022-10-08T08:17:30.237Z,99372.00
2022-10-08T08:19:57.480Z,99372.00
2022-10-08T08:22:24.470Z,99363.00
2022-10-08T08:24:58.277Z,99373.00
2022-10-08T08:27:25.155Z,99371.00
2022-10-08T08:29:58.270Z,99369.00
2022-10-08T08:32:28.515Z,99362.00
2022-10-08T08:34:55.579Z,99353.00
2022-10-08T08:37:29.249Z,99369.00
2022-10-08T08:40:02.265Z,99371.00
2022-10-08T08:42:49.488Z,99364.00
2022-10-08T08:45:49.025Z,99364.00
2022-10-08T08:48:24.419Z,99365.00
2022-10-08T08:50:58.302Z,99358.00
2022-10-08T08:53:25.247Z,99361.00
2022-10-08T08:56:03.388Z,99367.00
2022-10-08T08:58:49.884Z,99375.00
2022-10-08T09:01:44.298Z,99375.00
2022-10-08T09:04:27.106Z,99368.00
2022-10-08T09:07:00.303Z,99375.00
2022-10-08T09:09:37.680Z,99357.00
2022-10-08T09:12:26.351Z,99367.00
2022-10-08T09:14:59.423Z,99375.00
2022-10-08T09:17:42.352Z,99385.00
2022-10-08T09:20:15.294Z,99371.00
2022-10-08T09:22:48.683Z,99361.00
2022-10-08T09:25:27.415Z,99375.00
2022-10-08T09:28:08.329Z,99371.00
2022-10-08T09:30:41.192Z,99372.00
2022-10-08T09:33:23.392Z,99382.00
2022-10-08T09:35:51.885Z,99371.00
2022-10-08T09:38:34.339Z,99357.00
2022-10-08T09:41:02.818Z,99358.00
2022-10-08T09:43:37.438Z,99358.00
2022-10-08T09:46:08.917Z,99358.00
2022-10-08T09:48:35.933Z,99342.00
2022-10-08T09:51:22.350Z,99340.00
2022-10-08T09:53:54.681Z,99351.00
2022-10-08T09:56:33.417Z,99348.00
2022-10-08T09:59:09.375Z,99343.00
2022-10-08T10:01:36.328Z,99366.00
2022-10-08T10:04:03.517Z,99348.00
2022-10-08T10:06:41.326Z,99364.00
2022-10-08T10:09:11.109Z,99364.00
2022-10-08T10:11:57.370Z,99355.00
2022-10-08T10:14:55.181Z,99351.00
2022-10-08T10:17:56.434Z,99350.00
2022-10-08T10:20:40.277Z,99329.00
2022-10-08T10:23:26.345Z,99316.00
2022-10-08T10:26:08.396Z,99317.00
2022-10-08T10:29:01.420Z,99329.00
2022-10-08T10:31:39.476Z,99342.00
2022-10-08T10:34:28.317Z,99334.00
2022-10-08T10:37:06.407Z,99336.00
2022-10-08T10:39:48.375Z,99333.00
2022-10-08T10:42:41.279Z,99318.00
2022-10-08T10:45:20.334Z,99326.00
2022-10-08T10:47:47.242Z,99312.00
2022-10-08T10:50:21.369Z,99322.00
2022-10-08T10:52:59.742Z,99298.00
2022-10-08T10:55:58.448Z,99294.00
2022-10-08T10:58:51.820Z,99288.00
2022-10-08T11:02:00.601Z,99279.00
2022-10-08T11:05:12.023Z,99310.00
2022-10-08T11:08:23.375Z,99299.00
2022-10-08T11:11:05.274Z,99296.00
2022-10-08T11:14:03.427Z,99290.00
2022-10-08T11:17:01.932Z,99284.00
2022-10-08T11:19:48.511Z,99291.00
2022-10-08T11:22:47.556Z,99282.00
2022-10-08T11:25:24.388Z,99286.00
2022-10-08T11:28:13.491Z,99289.00
2022-10-08T11:31:21.838Z,99261.00
2022-10-08T11:33:55.427Z,99261.00
2022-10-08T11:36:47.401Z,99275.00
2022-10-08T11:39:35.904Z,99249.00
2022-10-08T11:43:08.419Z,99248.00
2022-10-08T11:45:38.374Z,99248.00
2022-10-08T11:48:40.441Z,99260.00
2022-10-08T11:51:19.707Z,99267.00
2022-10-08T11:54:29.577Z,99231.00
2022-10-08T11:57:24.944Z,99253.00
2022-10-08T12:00:08.888Z,99228.00
2022-10-08T12:02:42.560Z,99234.00
2022-10-08T12:05:50.215Z,99260.00
2022-10-08T12:08:52.234Z,99248.00
2022-10-08T12:11:40.424Z,99249.00
2022-10-08T12:14:13.166Z,99239.00
2022-10-08T12:16:55.476Z,99237.00
2022-10-08T12:19:34.849Z,99231.00
2022-10-08T12:22:23.513Z,99227.00
2022-10-08T12:25:01.259Z,99205.00
2022-10-08T12:27:42.536Z,99201.00
2022-10-08T12:30:16.450Z,99198.00
2022-10-08T12:32:50.730Z,99225.00
2022-10-08T12:35:31.975Z,99189.00
2022-10-08T12:38:33.546Z,99202.00
2022-10-08T12:41:22.874Z,99207.00
2022-10-08T12:44:08.488Z,99199.00
2022-10-08T12:47:35.478Z,99176.00
2022-10-08T12:50:41.500Z,99202.00
2022-10-08T12:53:12.450Z,99197.00
2022-10-08T12:56:01.487Z,99195.00
2022-10-08T12:58:33.843Z,99189.00
2022-10-08T13:01:08.523Z,99181.00
2022-10-08T13:03:35.443Z,99174.00
2022-10-08T13:06:34.001Z,99176.00
2022-10-08T13:09:01.079Z,99170.00
2022-10-08T13:11:34.489Z,99179.00
2022-10-08T13:14:01.334Z,99174.00
2022-10-08T13:16:34.482Z,99168.00
2022-10-08T13:19:01.337Z,99167.00
2022-10-08T13:21:37.483Z,99179.00
2022-10-08T13:24:13.463Z,99181.00
2022-10-08T13:27:00.521Z,99175.00
2022-10-08T13:29:39.461Z,99166.00
2022-10-08T13:32:29.470Z,99162.00
2022-10-08T13:35:00.600Z,99157.00
2022-10-08T13:37:44.629Z,99169.00
2022-10-08T13:40:11.591Z,99171.00
2022-10-08T13:43:14.477Z,99172.00
2022-10-08T13:45:41.332Z,99176.00
2022-10-08T13:48:21.509Z,99159.00
2022-10-08T13:51:01.523Z,99165.00
2022-10-08T13:53:28.442Z,99160.00
2022-10-08T13:56:01.467Z,99168.00
2022-10-08T13:58:28.750Z,99162.00
2022-10-08T14:01:02.575Z,99171.00
2022-10-08T14:03:35.524Z,99166.00
2022-10-08T14:06:02.387Z,99150.00
2022-10-08T14:08:29.248Z,99162.00
2022-10-08T14:11:02.525Z,99167.00
2022-10-08T14:13:29.390Z,99165.00
2022-10-08T14:16:02.574Z,99170.00
2022-10-08T14:18:29.580Z,99164.00
2022-10-08T14:21:02.525Z,99162.00
2022-10-08T14:23:29.425Z,99171.00
2022-10-08T14:25:56.275Z,99164.00
2022-10-08T14:28:29.614Z,99163.00
2022-10-08T14:31:02.606Z,99160.00
2022-10-08T14:33:29.536Z,99157.00
2022-10-08T14:35:56.395Z,99159.00
2022-10-08T14:38:29.537Z,99164.00
2022-10-08T14:40:56.443Z,99156.00
2022-10-08T14:43:29.597Z,99169.00
2022-10-08T14:46:02.597Z,99176.00
2022-10-08T14:48:35.514Z,99165.00
2022-10-08T14:51:02.422Z,99169.00
2022-10-08T14:53:35.551Z,99164.00
2022-10-08T14:56:12.425Z,99164.00
2022-10-08T14:58:39.735Z,99160.00
2022-10-08T15:01:06.726Z,99163.00
2022-10-08T15:03:40.604Z,99166.00
2022-10-08T15:06:14.574Z,99170.00
2022-10-08T15:08:41.447Z,99162.00
2022-10-08T15:11:14.577Z,99157.00
2022-10-08T15:13:41.410Z,99158.00
2022-10-08T15:16:21.647Z,99158.00
2022-10-08T15:18:48.607Z,99163.00
2022-10-08T15:21:21.576Z,99168.00
2022-10-08T15:23:54.559Z,99167.00
2022-10-08T15:26:21.410Z,99162.00
2022-10-08T15:28:48.397Z,99162.00
2022-10-08T15:31:23.573Z,99170.00
2022-10-08T15:33:51.627Z,99163.00
2022-10-08T15:36:31.595Z,99169.00
2022-10-08T15:39:15.517Z,99165.00
2022-10-08T15:41:53.615Z,99171.00
2022-10-08T15:44:21.452Z,99164.00
2022-10-08T15:46:50.067Z,99179.00
2022-10-08T15:49:23.570Z,99180.00
2022-10-08T15:51:50.420Z,99175.00
2022-10-08T15:54:23.586Z,99179.00
2022-10-08T15:56:50.430Z,99173.00
2022-10-08T15:59:23.593Z,99182.00
2022-10-08T16:01:50.535Z,99185.00
2022-10-08T16:04:23.581Z,99179.00
2022-10-08T16:06:50.459Z,99185.00
2022-10-08T16:09:19.528Z,99188.00
2022-10-08T16:11:53.587Z,99195.00
2022-10-08T16:14:24.467Z,99196.00
2022-10-08T16:16:51.710Z,99196.00
2022-10-08T16:19:30.585Z,99200.00
2022-10-08T16:22:04.600Z,99200.00
2022-10-08T16:24:31.473Z,99200.00
2022-10-08T16:27:04.617Z,99199.00
2022-10-08T16:29:31.482Z,99199.00
2022-10-08T16:32:04.615Z,99207.00
2022-10-08T16:34:31.493Z,99204.00
2022-10-08T16:36:58.427Z,99199.00
2022-10-08T16:39:31.607Z,99215.00
2022-10-08T16:41:58.487Z,99221.00
2022-10-08T16:44:31.664Z,99224.00
2022-10-08T16:46:58.557Z,99226.00
2022-10-08T16:49:33.645Z,99221.00
2022-10-08T16:52:03.264Z,99214.00
2022-10-08T16:54:36.627Z,99229.00
2022-10-08T16:57:03.529Z,99231.00
2022-10-08T16:59:30.874Z,99233.00
2022-10-08T17:02:05.683Z,99240.00
2022-10-08T17:04:32.586Z,99242.00
2022-10-08T17:07:05.633Z,99235.00
2022-10-08T17:09:32.466Z,99252.00
2022-10-08T17:12:05.633Z,99251.00
2022-10-08T17:14:38.645Z,99235.00
2022-10-08T17:17:05.559Z,99260.00
2022-10-08T17:19:32.468Z,99254.00
2022-10-08T17:22:05.624Z,99260.00
2022-10-08T17:24:32.505Z,99264.00
2022-10-08T17:27:05.725Z,99269.00
2022-10-08T17:29:32.663Z,99276.00
2022-10-08T17:32:05.670Z,99276.00
2022-10-08T17:34:33.203Z,99277.00
2022-10-08T17:37:06.628Z,99283.00
2022-10-08T17:39:33.510Z,99283.00
2022-10-08T17:42:07.428Z,99279.00
2022-10-08T17:44:35.042Z,99289.00
2022-10-08T17:47:01.889Z,99291.00
2022-10-08T17:49:35.672Z,99293.00
2022-10-08T17:52:02.532Z,99293.00
2022-10-08T17:54:35.716Z,99305.00
2022-10-08T17:57:02.719Z,99297.00
2022-10-08T17:59:35.687Z,99304.00
2022-10-08T18:02:02.841Z,99300.00
2022-10-08T18:04:36.708Z,99284.00
2022-10-08T18:07:03.843Z,99299.00
2022-10-08T18:09:37.724Z,99306.00
2022-10-08T18:12:11.732Z,99299.00
2022-10-08T18:14:38.790Z,99305.00
2022-10-08T18:17:11.670Z,99300.00
2022-10-08T18:19:38.594Z,99319.00
2022-10-08T18:22:05.522Z,99305.00
2022-10-08T18:24:38.770Z,99298.00
2022-10-08T18:27:05.651Z,99313.00
2022-10-08T18:29:38.698Z,99318.00
2022-10-08T18:32:11.705Z,99325.00
2022-10-08T18:34:44.719Z,99323.00
2022-10-08T18:37:11.604Z,99322.00
2022-10-08T18:39:44.779Z,99324.00
2022-10-08T18:42:17.733Z,99321.00
2022-10-08T18:44:51.725Z,99334.00
2022-10-08T18:47:24.727Z,99327.00
2022-10-08T18:49:51.623Z,99347.00
2022-10-08T18:52:24.710Z,99336.00
2022-10-08T18:54:51.580Z,99349.00
2022-10-08T18:57:24.959Z,99342.00
2022-10-08T18:59:51.805Z,99341.00
2022-10-08T19:02:18.732Z,99327.00
2022-10-08T19:04:51.752Z,99333.00
2022-10-08T19:07:18.686Z,99329.00
2022-10-08T19:09:51.779Z,99342.00
2022-10-08T19:12:24.797Z,99332.00
2022-10-08T19:14:57.723Z,99329.00
2022-10-08T19:17:24.644Z,99326.00
2022-10-08T19:19:51.505Z,99326.00
2022-10-08T19:22:24.713Z,99333.00
2022-10-08T19:24:51.601Z,99336.00
2022-10-08T19:27:18.447Z,99344.00
2022-10-08T19:29:51.753Z,99339.00
2022-10-08T19:32:24.729Z,99341.00
2022-10-08T19:34:51.613Z,99342.00
2022-10-08T19:37:24.776Z,99351.00
2022-10-08T19:39:51.653Z,99341.00
2022-10-08T19:42:24.739Z,99350.00
2022-10-08T19:44:57.769Z,99348.00
2022-10-08T19:47:37.839Z,99358.00
2022-10-08T19:50:11.752Z,99361.00
2022-10-08T19:52:53.086Z,99351.00
2022-10-08T19:55:20.176Z,99363.00
2022-10-08T19:57:47.098Z,99362.00
2022-10-08T20:00:20.736Z,99372.00
2022-10-08T20:02:47.850Z,99378.00
2022-10-08T20:05:27.764Z,99379.00
2022-10-08T20:07:54.678Z,99381.00
2022-10-08T20:10:21.573Z,99381.00
2022-10-08T20:12:54.784Z,99382.00
2022-10-08T20:15:21.648Z,99384.00
2022-10-08T20:17:54.785Z,99384.00
2022-10-08T20:20:32.835Z,99389.00
2022-10-08T20:23:06.763Z,99391.00
2022-10-08T20:25:33.637Z,99384.00
2022-10-08T20:28:06.875Z,99387.00
2022-10-08T20:30:39.817Z,99385.00
2022-10-08T20:33:06.667Z,99383.00
2022-10-08T20:35:42.750Z,99397.00
2022-10-08T20:38:09.578Z,99398.00
2022-10-08T20:40:42.785Z,99390.00
2022-10-08T20:43:09.625Z,99393.00
2022-10-08T20:45:42.799Z,99400.00
2022-10-08T20:48:09.658Z,99400.00
2022-10-08T20:50:42.775Z,99406.00
2022-10-08T20:53:09.620Z,99407.00
2022-10-08T20:55:43.823Z,99405.00
2022-10-08T20:58:10.714Z,99402.00
2022-10-08T21:00:43.803Z,99402.00
2022-10-08T21:03:10.725Z,99414.00
2022-10-08T21:05:40.684Z,99403.00
2022-10-08T21:08:13.799Z,99409.00
2022-10-08T21:10:40.657Z,99410.00
2022-10-08T21:13:13.826Z,99412.00
2022-10-08T21:15:40.697Z,99403.00
2022-10-08T21:18:13.833Z,99401.00
2022-10-08T21:20:40.677Z,99401.00
2022-10-08T21:23:13.823Z,99417.00
2022-10-08T21:25:40.679Z,99420.00
2022-10-08T21:28:13.865Z,99420.00
2022-10-08T21:30:46.818Z,99407.00
2022-10-08T21:33:13.729Z,99418.00
2022-10-08T21:35:40.588Z,99418.00
2022-10-08T21:38:13.818Z,99422.00
2022-10-08T21:40:46.811Z,99414.00
2022-10-08T21:43:19.845Z,99416.00
2022-10-08T21:45:57.059Z,99427.00
2022-10-08T21:48:31.819Z,99431.00
2022-10-08T21:51:15.870Z,99417.00
2022-10-08T21:53:50.918Z,99421.00
2022-10-08T21:56:26.856Z,99423.00
2022-10-08T21:58:55.404Z,99423.00
2022-10-08T22:01:32.867Z,99416.00
2022-10-08T22:04:19.829Z,99409.00
2022-10-08T22:06:58.822Z,99420.00
2022-10-08T22:09:27.583Z,99423.00
2022-10-08T22:12:01.843Z,99421.00
2022-10-08T22:14:29.034Z,99422.00
2022-10-08T22:17:02.844Z,99422.00
2022-10-08T22:19:29.815Z,99418.00
2022-10-08T22:21:56.719Z,99412.00
2022-10-08T22:24:29.889Z,99422.00
2022-10-08T22:26:56.724Z,99427.00
2022-10-08T22:29:29.887Z,99425.00
2022-10-08T22:31:56.812Z,99429.00
2022-10-08T22:34:29.897Z,99427.00
2022-10-08T22:36:56.768Z,99423.00
2022-10-08T22:39:29.877Z,99421.00
2022-10-08T22:42:00.057Z,99419.00
2022-10-08T22:44:27.185Z,99404.00
2022-10-08T22:47:00.897Z,99407.00
2022-10-08T22:49:28.573Z,99390.00
2022-10-08T22:52:03.087Z,99427.00
2022-10-08T22:54:29.939Z,99421.00
2022-10-08T22:57:03.896Z,99426.00
2022-10-08T22:59:30.727Z,99416.00
2022-10-08T23:02:03.923Z,99422.00
2022-10-08T23:04:30.807Z,99416.00
2022-10-08T23:07:03.848Z,99412.00
2022-10-08T23:09:30.766Z,99408.00
2022-10-08T23:12:03.941Z,99408.00
2022-10-08T23:14:30.777Z,99411.00
2022-10-08T23:16:57.711Z,99422.00
2022-10-08T23:19:30.953Z,99418.00
2022-10-08T23:21:57.827Z,99414.00
2022-10-08T23:24:24.683Z,99415.00
2022-10-08T23:26:57.865Z,99416.00
2022-10-08T23:29:24.862Z,99420.00
2022-10-08T23:31:58.918Z,99411.00
2022-10-08T23:34:25.871Z,99419.00
2022-10-08T23:36:58.897Z,99406.00
2022-10-08T23:39:25.739Z,99406.00
2022-10-08T23:41:58.859Z,99388.00
2022-10-08T23:44:25.691Z,99404.00
2022-10-08T23:46:58.912Z,99399.00
2022-10-08T23:49:31.930Z,99394.00
2022-10-08T23:52:04.937Z,99404.00
2022-10-08T23:54:31.965Z,99406.00
2022-10-08T23:57:04.889Z,99412.00
2022-10-08T23:59:31.736Z,99405.00
